createdAt,value
2023-03-11T00:00:47.120Z,75.51
2023-03-11T00:03:16.529Z,74.75
2023-03-11T00:05:46.480Z,73.19
2023-03-11T00:08:17.892Z,72.35
2023-03-11T00:10:48.209Z,71.80
2023-03-11T00:13:17.341Z,71.87
2023-03-11T00:15:49.450Z,72.88
2023-03-11T00:18:17.655Z,72.08
2023-03-11T00:20:47.478Z,73.42
2023-03-11T00:23:16.107Z,74.12
2023-03-11T00:25:46.165Z,72.55
2023-03-11T00:28:14.743Z,73.34
2023-03-11T00:30:43.920Z,72.33
2023-03-11T00:33:15.196Z,72.10
2023-03-11T00:35:43.929Z,72.55
2023-03-11T00:38:16.142Z,72.88
2023-03-11T00:40:45.312Z,72.68
2023-03-11T00:43:13.492Z,72.81
2023-03-11T00:45:41.073Z,72.74
2023-03-11T00:48:15.165Z,72.79
2023-03-11T00:50:42.739Z,72.40
2023-03-11T00:53:12.430Z,72.48
2023-03-11T00:55:40.113Z,71.71
2023-03-11T00:58:10.960Z,72.02
2023-03-11T01:00:38.365Z,71.71
2023-03-11T01:03:05.719Z,72.09
2023-03-11T01:05:34.910Z,72.60
2023-03-11T01:08:04.690Z,71.83
2023-03-11T01:10:33.759Z,70.91
2023-03-11T01:13:01.995Z,70.71
2023-03-11T01:15:32.494Z,70.46
2023-03-11T01:18:00.629Z,70.68
2023-03-11T01:20:29.505Z,71.46
2023-03-11T01:22:56.829Z,71.68
2023-03-11T01:25:25.233Z,70.61
2023-03-11T01:27:52.785Z,70.04
2023-03-11T01:30:23.438Z,69.48
2023-03-11T01:32:52.875Z,69.30
2023-03-11T01:35:22.595Z,70.85
2023-03-11T01:37:49.863Z,71.33
2023-03-11T01:40:25.815Z,72.83
2023-03-11T01:42:53.484Z,74.19
2023-03-11T01:45:33.488Z,74.45
2023-03-11T01:48:00.851Z,75.48
2023-03-11T01:50:35.144Z,76.25
2023-03-11T01:53:04.882Z,76.94
2023-03-11T01:55:32.899Z,78.46
2023-03-11T01:58:05.466Z,80.20
2023-03-11T02:00:32.670Z,79.96
2023-03-11T02:03:02.761Z,80.04
2023-03-11T02:05:30.234Z,79.96
2023-03-11T02:08:06.980Z,77.57
2023-03-11T02:10:34.448Z,79.29
2023-03-11T02:13:04.217Z,78.57
2023-03-11T02:15:31.866Z,79.52
2023-03-11T02:18:05.511Z,79.44
2023-03-11T02:20:52.162Z,80.49
2023-03-11T02:23:24.099Z,80.96
2023-03-11T02:26:06.572Z,80.96
2023-03-11T02:28:37.001Z,81.60
2023-03-11T02:31:13.697Z,81.54
2023-03-11T02:33:44.335Z,81.06
2023-03-11T02:36:32.711Z,82.77
2023-03-11T02:38:59.815Z,83.21
2023-03-11T02:41:28.275Z,83.08
2023-03-11T02:43:56.416Z,83.49
2023-03-11T02:46:23.863Z,83.90
2023-03-11T02:48:53.714Z,84.93
2023-03-11T02:51:21.321Z,84.88
2023-03-11T02:53:52.171Z,85.40
2023-03-11T02:56:19.733Z,85.67
2023-03-11T02:58:47.281Z,85.76
2023-03-11T03:01:14.766Z,87.21
2023-03-11T03:03:41.894Z,87.60
2023-03-11T03:06:09.970Z,89.24
2023-03-11T03:08:37.509Z,90.71
2023-03-11T03:11:06.050Z,90.11
2023-03-11T03:13:33.626Z,89.79
2023-03-11T03:16:07.045Z,93.07
2023-03-11T03:18:34.575Z,95.26
2023-03-11T03:21:03.004Z,95.50
2023-03-11T03:23:35.413Z,95.78
2023-03-11T03:26:02.959Z,97.58
2023-03-11T03:28:30.512Z,99.31
2023-03-11T03:31:04.388Z,100.00
2023-03-11T03:33:32.860Z,100.00
2023-03-11T03:35:59.934Z,100.00
2023-03-11T03:38:27.445Z,100.00
2023-03-11T03:40:54.790Z,100.00
2023-03-11T03:43:22.482Z,100.00
2023-03-11T03:46:01.361Z,100.00
2023-03-11T03:48:29.792Z,100.00
2023-03-11T03:51:05.215Z,100.00
2023-03-11T03:53:34.767Z,100.00
2023-03-11T03:56:06.877Z,100.00
2023-03-11T03:58:34.417Z,100.00
2023-03-11T04:01:06.955Z,100.00
2023-03-11T04:03:35.545Z,100.00
2023-03-11T04:06:11.560Z,100.00
2023-03-11T04:08:40.760Z,100.00
2023-03-11T04:11:07.847Z,100.00
2023-03-11T04:13:35.362Z,100.00
2023-03-11T04:16:08.187Z,100.00
2023-03-11T04:18:41.475Z,100.00
2023-03-11T04:21:08.914Z,100.00
2023-03-11T04:23:36.302Z,100.00
2023-03-11T04:26:06.465Z,100.00
2023-03-11T04:28:35.961Z,100.00
2023-03-11T04:31:03.582Z,100.00
2023-03-11T04:33:37.012Z,100.00
2023-03-11T04:36:08.781Z,100.00
2023-03-11T04:38:36.733Z,100.00
2023-03-11T04:41:05.962Z,100.00
2023-03-11T04:43:34.432Z,100.00
2023-03-11T04:46:02.047Z,100.00
2023-03-11T04:48:29.339Z,100.00
2023-03-11T04:50:57.992Z,100.00
2023-03-11T04:53:25.361Z,100.00
2023-03-11T04:55:54.074Z,100.00
2023-03-11T04:58:22.291Z,100.00
2023-03-11T05:00:49.841Z,100.00
2023-03-11T05:03:16.836Z,100.00
2023-03-11T05:05:45.733Z,100.00
2023-03-11T05:08:14.250Z,100.00
2023-03-11T05:10:43.135Z,100.00
2023-03-11T05:13:10.744Z,100.00
2023-03-11T05:15:39.380Z,100.00
2023-03-11T05:18:06.635Z,100.00
2023-03-11T05:20:35.130Z,100.00
2023-03-11T05:23:03.922Z,100.00
2023-03-11T05:25:31.786Z,100.00
2023-03-11T05:28:06.262Z,100.00
2023-03-11T05:30:33.821Z,100.00
2023-03-11T05:33:01.152Z,100.00
2023-03-11T05:35:28.878Z,100.00
2023-03-11T05:37:57.140Z,100.00
2023-03-11T05:40:24.701Z,100.00
2023-03-11T05:42:52.207Z,100.00
2023-03-11T05:45:19.656Z,100.00
2023-03-11T05:47:47.032Z,100.00
2023-03-11T05:50:14.465Z,100.00
2023-03-11T05:52:41.555Z,100.00
2023-03-11T05:55:17.980Z,100.00
2023-03-11T05:57:45.196Z,100.00
2023-03-11T06:00:20.838Z,100.00
2023-03-11T06:02:48.417Z,100.00
2023-03-11T06:05:16.078Z,100.00
2023-03-11T06:07:43.776Z,100.00
2023-03-11T06:10:11.949Z,100.00
2023-03-11T06:12:39.771Z,100.00
2023-03-11T06:15:09.816Z,100.00
2023-03-11T06:17:38.254Z,100.00
2023-03-11T06:20:06.409Z,100.00
2023-03-11T06:22:33.674Z,100.00
2023-03-11T06:25:01.109Z,100.00
2023-03-11T06:27:28.558Z,100.00
2023-03-11T06:29:55.995Z,100.00
2023-03-11T06:32:24.647Z,100.00
2023-03-11T06:34:53.264Z,100.00
2023-03-11T06:37:21.914Z,100.00
2023-03-11T06:39:53.452Z,100.00
2023-03-11T06:42:24.093Z,100.00
2023-03-11T06:44:51.463Z,100.00
2023-03-11T06:47:19.551Z,100.00
2023-03-11T06:49:46.995Z,100.00
2023-03-11T06:52:14.204Z,100.00
2023-03-11T06:54:41.723Z,100.00
2023-03-11T06:57:10.253Z,100.00
2023-03-11T06:59:39.543Z,100.00
2023-03-11T07:02:08.383Z,100.00
2023-03-11T07:04:36.637Z,100.00
2023-03-11T07:07:04.074Z,100.00
2023-03-11T07:09:33.749Z,100.00
2023-03-11T07:12:01.976Z,100.00
2023-03-11T07:14:29.074Z,100.00
2023-03-11T07:16:56.670Z,100.00
2023-03-11T07:19:24.242Z,100.00
2023-03-11T07:21:52.469Z,100.00
2023-03-11T07:24:19.964Z,100.00
2023-03-11T07:26:48.491Z,100.00
2023-03-11T07:29:15.892Z,100.00
2023-03-11T07:31:43.511Z,100.00
2023-03-11T07:34:12.860Z,100.00
2023-03-11T07:36:42.601Z,100.00
2023-03-11T07:39:14.885Z,100.00
2023-03-11T07:41:43.117Z,100.00
2023-03-11T07:44:13.623Z,100.00
2023-03-11T07:46:41.392Z,100.00
2023-03-11T07:49:09.110Z,100.00
2023-03-11T07:51:38.229Z,100.00
2023-03-11T07:54:06.245Z,100.00
2023-03-11T07:56:35.100Z,100.00
2023-03-11T07:59:05.574Z,100.00
2023-03-11T08:01:37.091Z,100.00
2023-03-11T08:04:07.184Z,100.00
2023-03-11T08:06:37.309Z,100.00
2023-03-11T08:09:09.387Z,100.00
2023-03-11T08:11:37.304Z,100.00
2023-03-11T08:14:05.277Z,100.00
2023-03-11T08:16:32.429Z,100.00
2023-03-11T08:19:01.010Z,100.00
2023-03-11T08:21:32.393Z,100.00
2023-03-11T08:24:01.659Z,100.00
2023-03-11T08:26:36.551Z,100.00
2023-03-11T08:29:04.376Z,100.00
2023-03-11T08:31:33.951Z,100.00
2023-03-11T08:34:04.281Z,100.00
2023-03-11T08:36:33.018Z,100.00
2023-03-11T08:39:00.281Z,100.00
2023-03-11T08:41:28.974Z,100.00
2023-03-11T08:43:58.138Z,100.00
2023-03-11T08:46:32.806Z,100.00
2023-03-11T08:49:02.540Z,100.00
2023-03-11T08:51:31.585Z,100.00
2023-03-11T08:53:59.698Z,100.00
2023-03-11T08:56:27.691Z,100.00
2023-03-11T08:58:55.497Z,100.00
2023-03-11T09:01:23.933Z,100.00
2023-03-11T09:03:51.170Z,100.00
2023-03-11T09:06:20.962Z,100.00
2023-03-11T09:08:49.255Z,100.00
2023-03-11T09:11:17.500Z,100.00
2023-03-11T09:13:45.204Z,100.00
2023-03-11T09:16:17.103Z,100.00
2023-03-11T09:18:44.292Z,100.00
2023-03-11T09:21:12.113Z,100.00
2023-03-11T09:23:41.116Z,100.00
2023-03-11T09:26:10.338Z,100.00
2023-03-11T09:28:37.835Z,100.00
2023-03-11T09:31:05.518Z,100.00
2023-03-11T09:33:36.244Z,100.00
2023-03-11T09:36:03.489Z,100.00
2023-03-11T09:38:31.187Z,100.00
2023-03-11T09:41:16.247Z,100.00
2023-03-11T09:44:33.228Z,100.00
2023-03-11T09:47:14.738Z,100.00
2023-03-11T09:50:05.112Z,100.00
2023-03-11T09:52:56.166Z,100.00
2023-03-11T09:55:27.318Z,100.00
2023-03-11T09:57:57.072Z,100.00
2023-03-11T10:00:25.471Z,100.00
2023-03-11T10:02:53.898Z,100.00
2023-03-11T10:05:27.743Z,100.00
2023-03-11T10:08:16.275Z,100.00
2023-03-11T10:11:04.136Z,100.00
2023-03-11T10:13:55.570Z,100.00
2023-03-11T10:16:43.776Z,100.00
2023-03-11T10:19:21.649Z,100.00
2023-03-11T10:22:30.630Z,100.00
2023-03-11T10:25:10.531Z,100.00
2023-03-11T10:27:52.490Z,100.00
2023-03-11T10:30:32.025Z,100.00
2023-03-11T10:33:04.990Z,100.00
2023-03-11T10:35:40.028Z,100.00
2023-03-11T10:38:24.572Z,100.00
2023-03-11T10:40:55.537Z,100.00
2023-03-11T10:43:32.064Z,100.00
2023-03-11T10:45:59.836Z,100.00
2023-03-11T10:48:28.597Z,100.00
2023-03-11T10:50:59.107Z,100.00
2023-03-11T10:53:26.239Z,100.00
2023-03-11T10:55:56.483Z,100.00
2023-03-11T10:58:27.302Z,100.00
2023-03-11T11:01:03.965Z,100.00
2023-03-11T11:03:31.664Z,100.00
2023-03-11T11:06:07.561Z,100.00
2023-03-11T11:08:35.327Z,100.00
2023-03-11T11:11:04.948Z,100.00
2023-03-11T11:13:35.024Z,100.00
2023-03-11T11:16:21.336Z,100.00
2023-03-11T11:18:59.854Z,100.00
2023-03-11T11:21:52.684Z,100.00
2023-03-11T11:24:29.343Z,100.00
2023-03-11T11:27:22.285Z,100.00
2023-03-11T11:30:15.248Z,100.00
2023-03-11T11:32:42.948Z,100.00
2023-03-11T11:35:17.562Z,100.00
2023-03-11T11:37:52.962Z,100.00
2023-03-11T11:40:26.972Z,100.00
2023-03-11T11:42:54.442Z,100.00
2023-03-11T11:45:33.058Z,100.00
2023-03-11T11:48:05.033Z,100.00
2023-03-11T11:50:42.397Z,100.00
2023-03-11T11:53:28.579Z,100.00
2023-03-11T11:55:58.928Z,100.00
2023-03-11T11:58:26.317Z,100.00
2023-03-11T12:01:12.024Z,100.00
2023-03-11T12:04:15.283Z,100.00
2023-03-11T12:07:26.991Z,100.00
2023-03-11T12:10:24.373Z,100.00
2023-03-11T12:13:29.661Z,100.00
2023-03-11T12:16:25.917Z,100.00
2023-03-11T12:19:10.900Z,100.00
2023-03-11T12:22:03.470Z,100.00
2023-03-11T12:25:22.346Z,100.00
2023-03-11T12:28:17.356Z,100.00
2023-03-11T12:31:00.840Z,100.00
2023-03-11T12:33:59.219Z,100.00
2023-03-11T12:36:36.753Z,100.00
2023-03-11T12:39:07.392Z,100.00
2023-03-11T12:41:41.506Z,100.00
2023-03-11T12:44:31.066Z,100.00
2023-03-11T12:47:16.864Z,100.00
2023-03-11T12:49:55.077Z,100.00
2023-03-11T12:52:29.967Z,100.00
2023-03-11T12:54:57.230Z,100.00
2023-03-11T12:57:47.824Z,100.00
2023-03-11T13:00:53.841Z,100.00
2023-03-11T13:03:46.175Z,100.00
2023-03-11T13:06:42.550Z,100.00
2023-03-11T13:09:18.447Z,100.00
2023-03-11T13:11:48.333Z,100.00
2023-03-11T13:14:21.109Z,100.00
2023-03-11T13:16:49.790Z,100.00
2023-03-11T13:19:32.391Z,100.00
2023-03-11T13:22:02.077Z,100.00
2023-03-11T13:24:32.572Z,100.00
2023-03-11T13:27:00.069Z,100.00
2023-03-11T13:29:48.075Z,100.00
2023-03-11T13:32:52.779Z,100.00
2023-03-11T13:35:46.630Z,100.00
2023-03-11T13:38:51.133Z,100.00
2023-03-11T13:41:25.476Z,100.00
2023-03-11T13:43:58.227Z,98.44
2023-03-11T13:46:35.977Z,97.60
2023-03-11T13:49:21.816Z,94.46
2023-03-11T13:51:51.342Z,92.34
2023-03-11T13:54:28.392Z,92.41
2023-03-11T13:57:01.599Z,90.94
2023-03-11T13:59:35.465Z,92.58
2023-03-11T14:02:14.047Z,92.44
2023-03-11T14:04:49.491Z,92.41
2023-03-11T14:07:23.097Z,93.00
2023-03-11T14:09:50.944Z,92.66
2023-03-11T14:12:19.932Z,93.03
2023-03-11T14:14:55.218Z,94.49
2023-03-11T14:17:22.648Z,92.49
2023-03-11T14:20:12.232Z,94.84
2023-03-11T14:22:39.867Z,97.74
2023-03-11T14:25:10.574Z,99.43
2023-03-11T14:27:49.006Z,99.83
2023-03-11T14:30:26.060Z,97.22
2023-03-11T14:33:22.154Z,92.56
2023-03-11T14:36:14.445Z,90.47
2023-03-11T14:38:44.735Z,89.85
2023-03-11T14:41:15.910Z,88.15
2023-03-11T14:43:48.560Z,88.10
2023-03-11T14:46:23.375Z,85.74
2023-03-11T14:48:52.388Z,83.86
2023-03-11T14:51:30.236Z,85.37
2023-03-11T14:54:31.313Z,85.75
2023-03-11T14:57:25.402Z,86.36
2023-03-11T14:59:54.750Z,85.52
2023-03-11T15:02:37.234Z,83.09
2023-03-11T15:05:17.259Z,83.88
2023-03-11T15:07:47.075Z,84.02
2023-03-11T15:10:15.126Z,81.21
2023-03-11T15:12:45.764Z,80.27
2023-03-11T15:15:28.424Z,79.05
2023-03-11T15:18:02.466Z,77.85
2023-03-11T15:20:36.012Z,78.98
2023-03-11T15:23:07.963Z,79.96
2023-03-11T15:25:39.471Z,81.29
2023-03-11T15:28:28.779Z,79.76
2023-03-11T15:31:37.904Z,79.97
2023-03-11T15:34:32.043Z,76.58
2023-03-11T15:37:21.185Z,75.19
2023-03-11T15:39:52.415Z,74.63
2023-03-11T15:42:25.257Z,74.75
2023-03-11T15:44:53.345Z,75.45
2023-03-11T15:47:24.005Z,75.26
2023-03-11T15:49:52.161Z,75.38
2023-03-11T15:52:22.499Z,73.61
2023-03-11T15:54:55.721Z,73.90
2023-03-11T15:57:29.090Z,74.15
2023-03-11T15:59:59.091Z,74.07
2023-03-11T16:02:31.345Z,73.45
2023-03-11T16:05:00.478Z,73.98
2023-03-11T16:07:39.105Z,73.22
2023-03-11T16:10:09.313Z,72.82
2023-03-11T16:12:38.088Z,73.36
2023-03-11T16:15:06.840Z,74.12
2023-03-11T16:17:48.964Z,73.34
2023-03-11T16:20:21.375Z,73.07
2023-03-11T16:22:51.390Z,72.53
2023-03-11T16:25:27.401Z,73.17
2023-03-11T16:27:57.613Z,73.82
2023-03-11T16:30:26.719Z,74.58
2023-03-11T16:32:54.556Z,75.33
2023-03-11T16:35:22.352Z,76.92
2023-03-11T16:37:50.350Z,76.39
2023-03-11T16:40:21.141Z,76.83
2023-03-11T16:43:06.621Z,77.85
2023-03-11T16:45:35.105Z,77.80
2023-03-11T16:48:03.921Z,76.87
2023-03-11T16:50:34.358Z,76.83
2023-03-11T16:53:03.736Z,76.62
2023-03-11T16:55:32.060Z,77.11
2023-03-11T16:57:59.525Z,76.38
2023-03-11T17:00:27.568Z,74.96
2023-03-11T17:02:55.854Z,74.84
2023-03-11T17:05:24.011Z,76.40
2023-03-11T17:08:01.116Z,76.46
2023-03-11T17:10:29.190Z,76.58
2023-03-11T17:12:57.269Z,76.29
2023-03-11T17:15:25.341Z,76.97
2023-03-11T17:17:54.460Z,76.97
2023-03-11T17:20:22.794Z,77.13
2023-03-11T17:22:53.096Z,77.22
2023-03-11T17:25:21.401Z,76.91
2023-03-11T17:27:51.222Z,75.72
2023-03-11T17:30:35.522Z,76.90
2023-03-11T17:33:11.041Z,77.25
2023-03-11T17:35:42.034Z,77.96
2023-03-11T17:38:10.266Z,78.35
2023-03-11T17:40:52.026Z,80.53
2023-03-11T17:43:22.315Z,83.93
2023-03-11T17:45:50.888Z,85.60
2023-03-11T17:48:19.193Z,86.79
2023-03-11T17:50:50.832Z,88.07
2023-03-11T17:53:20.176Z,87.52
2023-03-11T17:55:50.327Z,89.28
2023-03-11T17:58:18.927Z,91.00
2023-03-11T18:00:47.033Z,91.37
2023-03-11T18:03:14.925Z,92.13
2023-03-11T18:05:43.372Z,92.54
2023-03-11T18:08:11.738Z,92.18
2023-03-11T18:10:41.583Z,92.34
2023-03-11T18:13:10.121Z,90.88
2023-03-11T18:15:37.781Z,90.59
2023-03-11T18:18:06.215Z,88.77
2023-03-11T18:20:34.646Z,86.98
2023-03-11T18:23:02.853Z,85.76
2023-03-11T18:25:32.464Z,85.28
2023-03-11T18:28:04.504Z,82.89
2023-03-11T18:30:32.578Z,82.09
2023-03-11T18:33:00.656Z,81.85
2023-03-11T18:35:34.382Z,82.47
2023-03-11T18:38:03.930Z,81.91
2023-03-11T18:40:32.294Z,80.86
2023-03-11T18:43:00.289Z,81.07
2023-03-11T18:45:28.585Z,81.24
2023-03-11T18:47:56.485Z,80.52
2023-03-11T18:50:26.685Z,80.92
2023-03-11T18:52:55.381Z,82.17
2023-03-11T18:55:25.443Z,82.92
2023-03-11T18:57:56.107Z,83.24
2023-03-11T19:00:26.499Z,83.49
2023-03-11T19:02:55.045Z,83.33
2023-03-11T19:05:24.464Z,83.81
2023-03-11T19:07:52.750Z,83.79
2023-03-11T19:10:21.143Z,84.01
2023-03-11T19:12:48.702Z,84.81
2023-03-11T19:15:18.757Z,84.95
2023-03-11T19:17:57.433Z,85.69
2023-03-11T19:20:32.763Z,86.61
2023-03-11T19:23:03.142Z,88.50
2023-03-11T19:25:31.196Z,89.36
2023-03-11T19:27:59.558Z,90.52
2023-03-11T19:30:27.769Z,90.72
2023-03-11T19:32:55.916Z,91.96
2023-03-11T19:35:24.453Z,93.04
2023-03-11T19:37:57.166Z,94.28
2023-03-11T19:40:30.915Z,94.21
2023-03-11T19:42:59.792Z,95.03
2023-03-11T19:45:32.529Z,96.50
2023-03-11T19:48:03.626Z,96.87
2023-03-11T19:50:34.877Z,96.97
2023-03-11T19:53:12.473Z,96.70
2023-03-11T19:55:44.674Z,96.61
2023-03-11T19:58:12.646Z,96.51
2023-03-11T20:00:44.839Z,96.87
2023-03-11T20:03:13.690Z,96.66
2023-03-11T20:05:43.970Z,97.26
2023-03-11T20:08:16.632Z,97.89
2023-03-11T20:10:50.081Z,97.16
2023-03-11T20:13:23.956Z,97.11
2023-03-11T20:15:52.743Z,97.19
2023-03-11T20:18:21.061Z,97.47
2023-03-11T20:20:49.228Z,96.84
2023-03-11T20:23:17.520Z,96.03
2023-03-11T20:25:46.555Z,96.11
2023-03-11T20:28:16.097Z,95.68
2023-03-11T20:30:47.063Z,95.61
2023-03-11T20:33:15.106Z,95.26
2023-03-11T20:35:43.560Z,95.64
2023-03-11T20:38:13.650Z,95.69
2023-03-11T20:40:42.429Z,95.63
2023-03-11T20:43:10.412Z,95.25
2023-03-11T20:45:45.917Z,95.71
2023-03-11T20:48:14.935Z,96.07
2023-03-11T20:50:45.426Z,95.55
2023-03-11T20:53:13.458Z,95.45
2023-03-11T20:55:42.297Z,95.41
2023-03-11T20:58:12.173Z,95.57
2023-03-11T21:00:40.140Z,95.39
2023-03-11T21:03:07.476Z,94.93
2023-03-11T21:05:38.977Z,93.99
2023-03-11T21:08:07.783Z,93.75
2023-03-11T21:10:41.776Z,93.28
2023-03-11T21:13:11.146Z,93.07
2023-03-11T21:15:42.451Z,92.71
2023-03-11T21:18:10.953Z,92.60
2023-03-11T21:20:40.748Z,92.22
2023-03-11T21:23:09.916Z,91.83
2023-03-11T21:25:43.279Z,92.34
2023-03-11T21:28:17.271Z,92.07
2023-03-11T21:30:45.756Z,91.63
2023-03-11T21:33:14.671Z,91.02
2023-03-11T21:35:44.905Z,90.71
2023-03-11T21:38:12.831Z,90.56
2023-03-11T21:40:42.694Z,90.40
2023-03-11T21:43:10.318Z,89.59
2023-03-11T21:45:39.924Z,89.45
2023-03-11T21:48:14.495Z,89.10
2023-03-11T21:50:45.870Z,89.36
2023-03-11T21:53:13.410Z,89.18
2023-03-11T21:55:43.609Z,89.88
2023-03-11T21:58:13.233Z,89.68
2023-03-11T22:00:40.933Z,89.73
2023-03-11T22:03:08.105Z,89.33
2023-03-11T22:05:38.477Z,89.45
2023-03-11T22:08:06.066Z,89.83
2023-03-11T22:10:33.736Z,88.79
2023-03-11T22:13:01.434Z,89.31
2023-03-11T22:15:34.775Z,89.27
2023-03-11T22:18:01.958Z,89.14
2023-03-11T22:20:29.241Z,88.91
2023-03-11T22:22:56.550Z,89.14
2023-03-11T22:25:24.022Z,89.40
2023-03-11T22:27:51.544Z,90.00
2023-03-11T22:30:18.962Z,89.92
2023-03-11T22:32:46.388Z,89.80
2023-03-11T22:35:13.985Z,89.48
2023-03-11T22:37:41.470Z,90.02
2023-03-11T22:40:10.255Z,89.48
2023-03-11T22:42:38.287Z,89.54
2023-03-11T22:45:07.590Z,89.70
2023-03-11T22:47:36.802Z,89.62
2023-03-11T22:50:04.903Z,90.19
2023-03-11T22:52:32.198Z,90.33
2023-03-11T22:54:59.718Z,90.43
2023-03-11T22:57:39.082Z,90.66
2023-03-11T23:00:17.488Z,90.72
2023-03-11T23:02:46.123Z,91.41
2023-03-11T23:05:15.757Z,91.46
2023-03-11T23:07:43.064Z,91.98
2023-03-11T23:10:13.361Z,92.06
2023-03-11T23:12:48.014Z,92.20
2023-03-11T23:15:18.517Z,91.88
2023-03-11T23:17:46.075Z,91.54
2023-03-11T23:20:16.742Z,91.63
2023-03-11T23:22:44.353Z,92.21
2023-03-11T23:25:18.220Z,92.50
2023-03-11T23:27:46.686Z,93.40
2023-03-11T23:30:17.445Z,94.25
2023-03-11T23:32:45.943Z,95.10
2023-03-11T23:35:14.277Z,95.96
2023-03-11T23:37:41.765Z,95.93
2023-03-11T23:40:10.167Z,96.21
2023-03-11T23:42:37.628Z,97.33
2023-03-11T23:45:05.503Z,97.73
2023-03-11T23:47:33.331Z,97.27
2023-03-11T23:50:00.573Z,96.12
2023-03-11T23:52:28.322Z,96.65
2023-03-11T23:54:56.026Z,96.91
2023-03-11T23:57:24.408Z,97.05
2023-03-11T23:59:51.956Z,96.66
